地図

経路データ

SID SEASON NUMBER BASIN SUBBASIN NAME ISO_TIME NATURE LAT LON WMO_WIND WMO_PRES WMO_AGENCY TRACK_TYPE DIST2LAND LANDFALL IFLAG USA_AGENCY USA_ATCF_ID USA_LAT USA_LON USA_RECORD USA_STATUS USA_WIND USA_PRES USA_SSHS USA_R34_NE USA_R34_SE USA_R34_SW USA_R34_NW USA_R50_NE USA_R50_SE USA_R50_SW USA_R50_NW USA_R64_NE USA_R64_SE USA_R64_SW USA_R64_NW USA_POCI USA_ROCI USA_RMW USA_EYE TOKYO_LAT TOKYO_LON TOKYO_GRADE TOKYO_WIND TOKYO_PRES TOKYO_R50_DIR TOKYO_R50_LONG TOKYO_R50_SHORT TOKYO_R30_DIR TOKYO_R30_LONG TOKYO_R30_SHORT TOKYO_LAND CMA_LAT CMA_LON CMA_CAT CMA_WIND CMA_PRES HKO_LAT HKO_LON HKO_CAT HKO_WIND HKO_PRES NEWDELHI_LAT NEWDELHI_LON NEWDELHI_GRADE NEWDELHI_WIND NEWDELHI_PRES NEWDELHI_CI NEWDELHI_DP NEWDELHI_POCI REUNION_LAT REUNION_LON REUNION_TYPE REUNION_WIND REUNION_PRES REUNION_TNUM REUNION_CI REUNION_RMW REUNION_R34_NE REUNION_R34_SE REUNION_R34_SW REUNION_R34_NW REUNION_R50_NE REUNION_R50_SE REUNION_R50_SW REUNION_R50_NW REUNION_R64_NE REUNION_R64_SE REUNION_R64_SW REUNION_R64_NW BOM_LAT BOM_LON BOM_TYPE BOM_WIND BOM_PRES BOM_TNUM BOM_CI BOM_RMW BOM_R34_NE BOM_R34_SE BOM_R34_SW BOM_R34_NW BOM_R50_NE BOM_R50_SE BOM_R50_SW BOM_R50_NW BOM_R64_NE BOM_R64_SE BOM_R64_SW BOM_R64_NW BOM_ROCI BOM_POCI BOM_EYE BOM_POS_METHOD BOM_PRES_METHOD NADI_LAT NADI_LON NADI_CAT NADI_WIND NADI_PRES WELLINGTON_LAT WELLINGTON_LON WELLINGTON_WIND WELLINGTON_PRES DS824_LAT DS824_LON DS824_STAGE DS824_WIND DS824_PRES TD9636_LAT TD9636_LON TD9636_STAGE TD9636_WIND TD9636_PRES TD9635_LAT TD9635_LON TD9635_WIND TD9635_PRES TD9635_ROCI NEUMANN_LAT NEUMANN_LON NEUMANN_CLASS NEUMANN_WIND NEUMANN_PRES MLC_LAT MLC_LON MLC_CLASS MLC_WIND MLC_PRES USA_GUST BOM_GUST BOM_GUST_PER REUNION_GUST REUNION_GUST_PER USA_SEAHGT USA_SEARAD_NE USA_SEARAD_SE USA_SEARAD_SW USA_SEARAD_NW STORM_SPEED STORM_DIR
1851080S15063 1851 2 SI MM NOT_NAMED 1851-03-21 06:00:00 NR -15.1000 62.5000 reunion spur-split 756 733 _____O________ -1 -15.1000 62.5000 99 9.90000 4 240
1851080S15063 1851 2 SI MM NOT_NAMED 1851-03-21 09:00:00 NR -15.1919 62.3290 spur-split 733 718 _____P________ -1 -15.1919 62.3290 99 4 241
1851080S15063 1851 2 SI MM NOT_NAMED 1851-03-21 12:00:00 NR -15.2846 62.1563 spur-split 718 695 _____P________ -1 -15.2846 62.1563 99 4 241
1851080S15063 1851 2 SI MM NOT_NAMED 1851-03-21 15:00:00 NR -15.3787 61.9804 spur-split 695 673 _____P________ -1 -15.3787 61.9804 99 4 241
1851080S15063 1851 2 SI MM NOT_NAMED 1851-03-21 18:00:00 NR -15.4752 61.7999 spur-split 673 651 _____P________ -1 -15.4752 61.7999 99 4 241
1851080S15063 1851 2 SI MM NOT_NAMED 1851-03-21 21:00:00 NR -15.5747 61.6131 spur-split 651 628 _____P________ -1 -15.5747 61.6131 99 4 241
1851080S15063 1851 2 SI MM NOT_NAMED 1851-03-22 00:00:00 NR -15.6782 61.4186 spur-split 628 607 _____P________ -1 -15.6782 61.4186 99 4 241
1851080S15063 1851 2 SI MM NOT_NAMED 1851-03-22 03:00:00 NR -15.7863 61.2147 spur-split 607 585 _____P________ -1 -15.7863 61.2147 99 5 241
1851080S15063 1851 2 SI MM NOT_NAMED 1851-03-22 06:00:00 NR -15.9000 61.0000 reunion spur-split 585 563 _____O________ -1 -15.9000 61.0000 99 9.90000 5 241
1851080S15063 1851 2 SI MM NOT_NAMED 1851-03-22 09:00:00 NR -16.0193 60.7734 spur-split 563 536 _____P________ -1 -16.0193 60.7734 99 5 241
1851080S15063 1851 2 SI MM NOT_NAMED 1851-03-22 12:00:00 NR -16.1422 60.5363 spur-split 536 506 _____P________ -1 -16.1422 60.5363 99 5 242
1851080S15063 1851 2 SI MM NOT_NAMED 1851-03-22 15:00:00 NR -16.2658 60.2906 spur-split 506 485 _____P________ -1 -16.2658 60.2906 99 5 243
1851080S15063 1851 2 SI MM NOT_NAMED 1851-03-22 18:00:00 NR -16.3875 60.0381 spur-split 479 459 _____P________ -1 -16.3875 60.0381 99 5 244
1851080S15063 1851 2 SI MM NOT_NAMED 1851-03-22 21:00:00 NR -16.5045 59.7808 spur-split 459 435 _____P________ -1 -16.5045 59.7808 99 5 245
1851080S15063 1851 2 SI MM NOT_NAMED 1851-03-23 00:00:00 NR -16.6140 59.5207 spur-split 435 416 _____P________ -1 -16.6140 59.5207 99 5 247
1851080S15063 1851 2 SI MM NOT_NAMED 1851-03-23 03:00:00 NR -16.7134 59.2598 spur-split 416 393 _____P________ -1 -16.7134 59.2598 99 5 250
1851080S15063 1851 2 SI MM NOT_NAMED 1851-03-23 06:00:00 NR -16.8000 59.0000 reunion spur-split 393 376 _____O________ -1 -16.8000 59.0000 99 9.90000 5 253
1851080S15063 1851 2 SI MM NOT_NAMED 1851-03-23 09:00:00 NR -16.8650 58.7572 spur-split 376 367 _____P________ -1 -16.8650 58.7572 99 5 256
1851080S15063 1851 2 SI MM NOT_NAMED 1851-03-23 12:00:00 NR -16.9175 58.5155 spur-split 367 352 _____P________ -1 -16.9175 58.5155 99 5 258
1851080S15063 1851 2 SI MM NOT_NAMED 1851-03-23 15:00:00 NR -16.9597 58.2733 spur-split 352 348 _____P________ -1 -16.9597 58.2733 99 5 261
1851080S15063 1851 2 SI MM NOT_NAMED 1851-03-23 18:00:00 NR -16.9940 58.0290 spur-split 348 346 _____P________ -1 -16.9940 58.0290 99 5 262
1851080S15063 1851 2 SI MM NOT_NAMED 1851-03-23 21:00:00 NR -17.0229 57.7812 spur-split 346 346 _____P________ -1 -17.0229 57.7812 99 5 264
1851080S15063 1851 2 SI MM NOT_NAMED 1851-03-24 00:00:00 NR -17.0486 57.5281 spur-split 346 335 _____P________ -1 -17.0486 57.5281 99 5 264
1851080S15063 1851 2 SI MM NOT_NAMED 1851-03-24 03:00:00 NR -17.0735 57.2682 spur-split 336 336 _____P________ -1 -17.0735 57.2682 99 5 264
1851080S15063 1851 2 SI MM NOT_NAMED 1851-03-24 06:00:00 NR -17.1000 57.0000 reunion spur-split 339 339 _____O________ -1 -17.1000 57.0000 99 9.90000 5 264
1851080S15063 1851 2 SI MM NOT_NAMED 1851-03-24 09:00:00 NR -17.1316 56.7222 spur-split 346 341 _____P________ -1 -17.1316 56.7222 99 5 263
1851080S15063 1851 2 SI MM NOT_NAMED 1851-03-24 12:00:00 NR -17.1625 56.4364 spur-split 344 344 _____P________ -1 -17.1625 56.4364 99 6 264
1851080S15063 1851 2 SI MM NOT_NAMED 1851-03-24 15:00:00 NR -17.1939 56.1435 spur-split 356 356 _____P________ -1 -17.1939 56.1435 99 6 263
1851080S15063 1851 2 SI MM NOT_NAMED 1851-03-24 18:00:00 NR -17.2270 55.8443 spur-split 370 370 _____P________ -1 -17.2270 55.8443 99 6 263
1851080S15063 1851 2 SI MM NOT_NAMED 1851-03-24 21:00:00 NR -17.2630 55.5395 spur-split 377 377 _____P________ -1 -17.2630 55.5395 99 6 263
1851080S15063 1851 2 SI MM NOT_NAMED 1851-03-25 00:00:00 NR -17.3030 55.2300 spur-split 395 395 _____P________ -1 -17.3030 55.2300 99 6 262
1851080S15063 1851 2 SI MM NOT_NAMED 1851-03-25 03:00:00 NR -17.3483 54.9166 spur-split 416 404 _____P________ -1 -17.3483 54.9166 99 6 261
1851080S15063 1851 2 SI MM NOT_NAMED 1851-03-25 06:00:00 NR -17.4000 54.6000 reunion spur-split 409 405 _____O________ -1 -17.4000 54.6000 99 9.90000 6 260
1851080S15063 1851 2 SI MM NOT_NAMED 1851-03-25 09:00:00 NR -17.4549 54.2917 spur-split 405 405 _____P________ -1 -17.4549 54.2917 99 6 259
1851080S15063 1851 2 SI MM NOT_NAMED 1851-03-25 12:00:00 NR -17.5155 53.9802 spur-split 414 411 _____P________ -1 -17.5155 53.9802 99 6 258
1851080S15063 1851 2 SI MM NOT_NAMED 1851-03-25 15:00:00 NR -17.5818 53.6646 spur-split 413 384 _____P________ -1 -17.5818 53.6646 99 6 257
1851080S15063 1851 2 SI MM NOT_NAMED 1851-03-25 18:00:00 NR -17.6538 53.3442 spur-split 380 353 _____P________ -1 -17.6538 53.3442 99 6 256
1851080S15063 1851 2 SI MM NOT_NAMED 1851-03-25 21:00:00 NR -17.7317 53.0184 spur-split 353 327 _____P________ -1 -17.7317 53.0184 99 6 256
1851080S15063 1851 2 SI MM NOT_NAMED 1851-03-26 00:00:00 NR -17.8153 52.6862 spur-split 327 302 _____P________ -1 -17.8153 52.6862 99 7 255
1851080S15063 1851 2 SI MM NOT_NAMED 1851-03-26 03:00:00 NR -17.9047 52.3470 spur-split 292 266 _____P________ -1 -17.9047 52.3470 99 7 254
1851080S15063 1851 2 SI MM NOT_NAMED 1851-03-26 06:00:00 NR -18.0000 52.0000 reunion spur-split 266 226 _____O________ -1 -18.0000 52.0000 99 9.90000 7 254
1851080S15063 1851 2 SI MM NOT_NAMED 1851-03-26 09:00:00 NR -18.1069 51.6041 spur-split 226 188 _____P________ -1 -18.1069 51.6041 99 8 254
1851080S15063 1851 2 SI MM NOT_NAMED 1851-03-26 12:00:00 NR -18.2212 51.1948 spur-split 188 148 _____P________ -1 -18.2212 51.1948 99 8 253
1851080S15063 1851 2 SI MM NOT_NAMED 1851-03-26 15:00:00 NR -18.3398 50.7816 spur-split 148 107 _____P________ -1 -18.3398 50.7816 99 8 253
1851080S15063 1851 2 SI MM NOT_NAMED 1851-03-26 18:00:00 NR -18.4598 50.3743 spur-split 110 77 _____P________ -1 -18.4598 50.3743 99 8 253
1851080S15063 1851 2 SI MM NOT_NAMED 1851-03-26 21:00:00 NR -18.5785 49.9827 spur-split 77 42 _____P________ -1 -18.5785 49.9827 99 8 252
1851080S15063 1851 2 SI MM NOT_NAMED 1851-03-27 00:00:00 NR -18.6932 49.6166 spur-split 42 15 _____P________ -1 -18.6932 49.6166 99 7 251
1851080S15063 1851 2 SI MM NOT_NAMED 1851-03-27 03:00:00 NR -18.8012 49.2857 spur-split 15 0 _____P________ -1 -18.8012 49.2857 99 6 250
1851080S15063 1851 2 SI MM NOT_NAMED 1851-03-27 06:00:00 NR -18.9000 49.0000 reunion spur-split 0 0 _____O________ -1 -18.9000 49.0000 99 9.90000 5 249
1851080S15063 1851 2 SI MM NOT_NAMED 1851-03-27 09:00:00 NR -18.9876 48.7666 spur-split 0 0 _____P________ -1 -18.9876 48.7666 99 4 247
1851080S15063 1851 2 SI MM NOT_NAMED 1851-03-27 12:00:00 NR -19.0651 48.5815 spur-split 0 0 _____P________ -1 -19.0651 48.5815 99 3 245
1851080S15063 1851 2 SI MM NOT_NAMED 1851-03-27 15:00:00 NR -19.1339 48.4379 spur-split 0 0 _____P________ -1 -19.1339 48.4379 99 3 241
1851080S15063 1851 2 SI MM NOT_NAMED 1851-03-27 18:00:00 NR -19.1956 48.3288 spur-split 0 0 _____P________ -1 -19.1956 48.3288 99 2 237
1851080S15063 1851 2 SI MM NOT_NAMED 1851-03-27 21:00:00 NR -19.2516 48.2474 spur-split 0 0 _____P________ -1 -19.2516 48.2474 99 2 230
1851080S15063 1851 2 SI MM NOT_NAMED 1851-03-28 00:00:00 NR -19.3034 48.1867 spur-split 0 0 _____P________ -1 -19.3034 48.1867 99 1 225
1851080S15063 1851 2 SI MM NOT_NAMED 1851-03-28 03:00:00 NR -19.3524 48.1399 spur-split 0 0 _____P________ -1 -19.3524 48.1399 99 1 219
1851080S15063 1851 2 SI MM NOT_NAMED 1851-03-28 06:00:00 NR -19.4000 48.1000 reunion spur-split 0 _____O________ -1 -19.4000 48.1000 99 9.90000 1 212

IBTrACS Databaseについて

本データベースは、米国NOAAが公開する1842年以降の世界の熱帯低気圧のベストトラックデータアーカイブInternational Best Track Archive for Climate Stewardship (IBTrACS)を、ウェブで閲覧しやすい形式に変換したものです。

最終更新日:2021-10-08